Time;durP1;ratioP1;P1;durP2;ratioP2;P2;SDS_P1;SDS_P2;PMS_P1;PMS_P2;Temp;Humidity;BMP_temperature;BMP_pressure;BME280_temperature;BME280_humidity;BME280_pressure;Samples;Min_cycle;Max_cycle;Signal;HPM_P1;HPM_P2
2022/04/09 00:00:40;;;;;;;11.18;4.87;;;;;;;11.27;50.86;99776.03;1723649;82;25461;-63
2022/04/09 00:03:07;;;;;;;13.10;5.50;;;;;;;11.27;51.04;99776.55;1721010;83;27488;-62
2022/04/09 00:05:33;;;;;;;13.28;4.80;;;;;;;11.23;51.41;99769.31;1716644;83;26151;-62
2022/04/09 00:08:00;;;;;;;13.25;4.97;;;;;;;11.22;51.46;99768.97;1716757;83;25684;-62
2022/04/09 00:10:27;;;;;;;18.77;5.05;;;;;;;11.24;51.43;99764.76;1716535;83;27069;-63
2022/04/09 00:12:54;;;;;;;9.55;4.83;;;;;;;11.23;51.90;99769.80;1716639;83;26297;-62
2022/04/09 00:15:20;;;;;;;11.48;5.67;;;;;;;11.21;52.32;99771.80;1716913;83;27482;-63
2022/04/09 00:17:48;;;;;;;13.80;5.08;;;;;;;11.18;52.53;99777.02;1716668;83;25666;-63
2022/04/09 00:20:17;;;;;;;8.20;4.33;;;;;;;11.15;52.41;99779.20;1716828;83;25826;-63
2022/04/09 00:22:46;;;;;;;10.10;5.30;;;;;;;11.10;52.54;99775.66;1716826;83;26823;-62
2022/04/09 00:25:23;;;;;;;9.15;5.05;;;;;;;11.09;52.63;99777.52;1716670;83;25840;-62
2022/04/09 00:27:45;;;;;;;17.00;4.70;;;;;;;11.07;52.75;99770.63;1716625;83;28642;-62
2022/04/09 00:30:12;;;;;;;11.55;4.35;;;;;;;11.03;53.01;99780.84;1716582;83;25720;-63
2022/04/09 00:32:39;;;;;;;12.68;4.22;;;;;;;11.03;52.52;99785.40;1716677;83;25741;-62
2022/04/09 00:35:08;;;;;;;7.22;4.10;;;;;;;11.04;52.47;99789.78;1718575;83;26239;-62
2022/04/09 00:37:45;;;;;;;8.35;5.20;;;;;;;11.03;52.39;99784.05;1716858;83;25813;-63
2022/04/09 00:40:18;;;;;;;14.20;4.60;;;;;;;11.03;52.49;99784.88;1716549;83;27514;-63
2022/04/09 00:42:46;;;;;;;15.80;5.03;;;;;;;11.04;52.35;99777.67;1716737;83;25683;-62
2022/04/09 00:45:14;;;;;;;14.20;4.58;;;;;;;11.04;52.25;99779.84;1743456;82;25754;-63
2022/04/09 00:47:41;;;;;;;21.68;4.22;;;;;;;11.06;52.18;99777.84;1748162;81;25705;-62
2022/04/09 00:50:11;;;;;;;12.78;4.87;;;;;;;11.09;52.29;99781.56;1718867;82;25830;-63
2022/04/09 00:52:42;;;;;;;9.00;4.47;;;;;;;11.08;52.47;99773.63;1697325;84;27686;-62
2022/04/09 00:55:13;;;;;;;12.05;4.75;;;;;;;11.09;52.29;99776.17;1697353;83;25776;-63
2022/04/09 00:57:44;;;;;;;20.15;5.03;;;;;;;11.09;52.27;99772.14;1697478;84;25774;-62
2022/04/09 01:00:14;;;;;;;14.30;4.40;;;;;;;11.10;52.39;99772.97;1718466;82;26106;-63
2022/04/09 01:02:45;;;;;;;13.25;5.12;;;;;;;11.10;52.39;99772.97;1731116;82;26041;-62
2022/04/09 01:05:13;;;;;;;15.35;4.55;;;;;;;11.08;52.56;99770.94;1730864;82;28470;-63
2022/04/09 01:07:40;;;;;;;11.40;4.12;;;;;;;11.04;52.98;99772.28;1730293;82;25713;-62
2022/04/09 01:10:09;;;;;;;17.62;4.70;;;;;;;10.98;53.36;99769.74;1730703;82;26512;-62
2022/04/09 01:12:38;;;;;;;12.80;4.42;;;;;;;10.93;53.10;99776.12;1730274;82;25917;-62
2022/04/09 01:15:08;;;;;;;12.10;4.22;;;;;;;10.91;53.20;99769.55;1729330;82;25478;-62
2022/04/09 01:17:37;;;;;;;11.75;4.42;;;;;;;10.91;53.22;99768.20;1729447;82;28299;-62
2022/04/09 01:20:22;;;;;;;11.53;4.30;;;;;;;10.94;53.12;99765.68;1729421;82;25692;-63
2022/04/09 01:22:51;;;;;;;12.07;4.75;;;;;;;10.94;53.60;99763.84;1696671;82;25468;-62
2022/04/09 01:25:19;;;;;;;8.53;3.95;;;;;;;10.95;54.25;99759.30;1729599;82;26124;-62
2022/04/09 01:27:49;;;;;;;11.48;4.30;;;;;;;10.92;54.09;99753.74;1729827;82;26268;-63
2022/04/09 01:30:17;;;;;;;9.40;4.08;;;;;;;10.91;54.15;99745.33;1729303;81;27466;-62
2022/04/09 01:32:44;;;;;;;15.98;4.25;;;;;;;10.94;53.94;99750.39;1729533;82;25788;-62
2022/04/09 01:35:12;;;;;;;13.15;4.55;;;;;;;10.95;54.13;99737.28;1729641;81;25649;-62
2022/04/09 01:37:39;;;;;;;14.95;4.55;;;;;;;10.96;53.97;99732.73;1729771;82;26136;-62
2022/04/09 01:40:09;;;;;;;10.43;4.20;;;;;;;10.99;53.95;99732.41;1729592;82;26455;-62
2022/04/09 01:42:38;;;;;;;7.45;3.95;;;;;;;11.01;54.08;99725.51;1729848;82;28085;-61
2022/04/09 01:45:08;;;;;;;21.12;4.55;;;;;;;11.03;53.96;99722.16;1728541;82;25524;-62
2022/04/09 01:47:40;;;;;;;8.55;4.28;;;;;;;11.08;53.74;99718.45;1728708;83;25864;-62
2022/04/09 01:50:06;;;;;;;9.88;4.45;;;;;;;11.10;53.84;99721.34;1714507;83;27147;-62
2022/04/09 01:52:33;;;;;;;9.78;4.17;;;;;;;11.10;54.01;99724.03;1700677;83;26068;-62
2022/04/09 01:55:00;;;;;;;18.55;4.50;;;;;;;11.10;54.03;99720.48;1700398;84;27641;-62
2022/04/09 01:57:27;;;;;;;12.07;4.20;;;;;;;11.12;53.90;99712.58;1701987;82;25788;-62
2022/04/09 01:59:54;;;;;;;12.10;4.47;;;;;;;11.15;53.97;99714.60;1727534;83;25698;-62
2022/04/09 02:02:21;;;;;;;10.35;4.05;;;;;;;11.18;53.88;99708.38;1719977;83;26067;-62
2022/04/09 02:04:48;;;;;;;9.33;4.17;;;;;;;11.19;53.82;99711.41;1720468;83;25781;-62
2022/04/09 02:07:17;;;;;;;11.35;3.95;;;;;;;11.19;53.91;99712.76;1720490;83;27385;-62
2022/04/09 02:09:44;;;;;;;10.75;4.30;;;;;;;11.18;53.89;99705.69;1720338;83;25780;-62
2022/04/09 02:12:11;;;;;;;12.35;4.53;;;;;;;11.15;54.04;99710.08;1720535;83;25733;-62
2022/04/09 02:14:38;;;;;;;16.82;4.37;;;;;;;11.13;53.99;99706.70;1733096;82;26217;-62
2022/04/09 02:17:05;;;;;;;13.93;4.28;;;;;;;11.10;54.04;99692.22;1742439;82;25681;-62
2022/04/09 02:19:32;;;;;;;8.45;3.47;;;;;;;11.08;54.27;99692.39;1742416;82;27442;-62
2022/04/09 02:22:00;;;;;;;9.00;4.40;;;;;;;11.10;54.18;99690.88;1742218;82;25863;-62
2022/04/09 02:24:27;;;;;;;9.40;4.47;;;;;;;11.11;54.30;99688.04;1742362;82;25645;-62
2022/04/09 02:26:54;;;;;;;9.25;4.55;;;;;;;11.10;54.35;99683.66;1742383;82;26111;-62
2022/04/09 02:29:21;;;;;;;13.28;4.42;;;;;;;11.10;54.50;99685.49;1742536;82;25776;-62
2022/04/09 02:31:48;;;;;;;13.95;5.28;;;;;;;11.07;54.94;99689.36;1742293;82;27616;-62
2022/04/09 02:34:15;;;;;;;10.13;4.12;;;;;;;11.04;54.85;99680.78;1742409;82;25900;-62
2022/04/09 02:36:42;;;;;;;9.85;4.00;;;;;;;11.06;54.97;99684.98;1742457;82;25777;-62
2022/04/09 02:39:10;;;;;;;11.40;4.30;;;;;;;11.02;55.14;99677.41;1742522;82;25896;-62
2022/04/09 02:41:37;;;;;;;10.30;4.70;;;;;;;11.01;55.22;99665.81;1742489;82;25742;-62
2022/04/09 02:44:06;;;;;;;13.62;4.35;;;;;;;11.02;55.21;99663.47;1731599;81;27486;-62
2022/04/09 02:46:34;;;;;;;7.97;3.85;;;;;;;11.02;55.33;99661.27;1720343;82;25721;-62
2022/04/09 02:49:03;;;;;;;11.43;4.50;;;;;;;11.01;55.07;99657.74;1718350;83;25752;-62
2022/04/09 02:51:30;;;;;;;12.35;4.58;;;;;;;11.03;55.43;99654.88;1687785;85;26098;-62
2022/04/09 02:53:57;;;;;;;11.43;4.55;;;;;;;11.03;55.03;99648.15;1687851;85;25701;-62
2022/04/09 02:56:25;;;;;;;15.55;4.72;;;;;;;11.02;55.38;99649.16;1687848;85;27429;-62
2022/04/09 02:58:52;;;;;;;9.78;4.15;;;;;;;11.00;55.44;99648.47;1709162;83;25715;-62
2022/04/09 03:01:19;;;;;;;11.28;4.53;;;;;;;10.99;55.46;99636.02;1719492;83;25671;-62
2022/04/09 03:03:46;;;;;;;16.77;4.72;;;;;;;10.98;55.45;99629.81;1718830;83;26144;-62
2022/04/09 03:06:13;;;;;;;13.30;4.25;;;;;;;10.96;55.45;99626.44;1718919;83;26105;-62
2022/04/09 03:08:40;;;;;;;15.32;4.50;;;;;;;10.94;56.01;99629.30;1713127;83;27478;-62
2022/04/09 03:11:09;;;;;;;8.50;4.55;;;;;;;10.92;55.68;99640.73;1711465;83;25787;-62
2022/04/09 03:13:35;;;;;;;14.53;5.05;;;;;;;10.89;55.51;99635.67;1711571;83;25752;-62
2022/04/09 03:16:02;;;;;;;18.42;4.85;;;;;;;10.89;55.51;99632.98;1711748;83;26049;-62
2022/04/09 03:18:29;;;;;;;13.75;4.95;;;;;;;10.91;55.32;99629.63;1711256;83;25767;-62
2022/04/09 03:20:56;;;;;;;11.75;4.65;;;;;;;10.94;55.28;99629.30;1711195;83;27424;-62
2022/04/09 03:23:24;;;;;;;19.35;5.17;;;;;;;10.99;56.01;99626.12;1711251;83;25788;-61
2022/04/09 03:25:52;;;;;;;12.10;4.50;;;;;;;10.95;55.25;99628.79;1711251;83;25766;-62
2022/04/09 03:28:21;;;;;;;11.43;4.35;;;;;;;10.94;55.29;99629.30;1711415;83;26202;-62
2022/04/09 03:30:49;;;;;;;10.93;4.72;;;;;;;10.95;55.25;99625.61;1711511;83;26124;-62
2022/04/09 03:33:18;;;;;;;24.47;5.25;;;;;;;10.93;54.93;99620.89;1711423;83;27453;-62
2022/04/09 03:35:48;;;;;;;11.55;4.87;;;;;;;10.96;55.29;99617.02;1711528;83;25716;-62
2022/04/09 03:38:16;;;;;;;12.98;4.83;;;;;;;10.94;55.06;99610.47;1711454;83;25632;-62
2022/04/09 03:40:51;;;;;;;12.65;3.95;;;;;;;10.93;54.88;99603.92;1711457;83;26095;-62
2022/04/09 03:43:21;;;;;;;10.28;4.12;;;;;;;10.95;54.91;99608.61;1711447;83;25471;-62
2022/04/09 03:45:48;;;;;;;10.82;4.50;;;;;;;10.98;54.75;99602.08;1711478;83;27494;-62
2022/04/09 03:48:15;;;;;;;13.80;4.45;;;;;;;11.01;54.72;99607.95;1710816;83;25771;-62
2022/04/09 03:50:43;;;;;;;11.78;4.92;;;;;;;11.03;54.79;99608.61;1703068;83;25766;-62
2022/04/09 03:53:11;;;;;;;16.87;4.22;;;;;;;11.05;54.70;99603.91;1700296;84;26441;-62
2022/04/09 03:55:40;;;;;;;13.48;5.83;;;;;;;11.05;54.72;99603.08;1700532;84;25725;-62
2022/04/09 03:58:07;;;;;;;8.93;5.17;;;;;;;11.04;54.77;99602.22;1703932;82;26901;-62
2022/04/09 04:00:34;;;;;;;17.50;4.17;;;;;;;11.08;54.80;99607.62;1711373;83;25820;-62
2022/04/09 04:03:02;;;;;;;16.60;5.53;;;;;;;11.09;54.85;99600.38;1711408;83;25493;-62
2022/04/09 04:05:32;;;;;;;17.60;4.78;;;;;;;11.12;54.83;99611.64;1711439;83;26097;-62
2022/04/09 04:07:59;;;;;;;13.03;4.75;;;;;;;11.12;54.57;99604.91;1711599;83;25815;-62
2022/04/09 04:10:27;;;;;;;12.33;4.37;;;;;;;11.12;54.49;99608.12;1711053;83;27479;-62
2022/04/09 04:12:56;;;;;;;8.18;4.62;;;;;;;11.17;54.50;99607.61;1711233;83;25779;-63
2022/04/09 04:15:25;;;;;;;12.85;5.05;;;;;;;11.20;54.42;99617.54;1711374;83;25522;-62
2022/04/09 04:17:52;;;;;;;16.70;4.72;;;;;;;11.22;54.93;99622.25;1711581;83;26150;-62
2022/04/09 04:20:21;;;;;;;14.78;5.03;;;;;;;11.21;54.53;99618.36;1711352;83;25702;-62
2022/04/09 04:22:51;;;;;;;28.15;5.12;;;;;;;11.22;54.55;99622.25;1711425;83;27501;-61
2022/04/09 04:25:19;;;;;;;20.37;4.25;;;;;;;11.24;54.55;99619.38;1711383;83;25443;-62
2022/04/09 04:27:51;;;;;;;18.32;4.83;;;;;;;11.25;54.42;99615.69;1711421;83;25728;-61
2022/04/09 04:30:19;;;;;;;19.57;5.05;;;;;;;11.27;54.39;99615.84;1711501;83;26086;-62
2022/04/09 04:32:46;;;;;;;16.52;4.85;;;;;;;11.31;54.33;99621.73;1711451;83;25751;-62
2022/04/09 04:35:15;;;;;;;27.05;6.67;;;;;;;11.34;54.14;99620.05;1711342;83;27475;-62
2022/04/09 04:37:46;;;;;;;16.48;4.75;;;;;;;11.38;54.08;99625.45;1711544;83;25935;-62
2022/04/09 04:40:15;;;;;;;19.17;4.53;;;;;;;11.42;54.02;99620.05;1711323;83;25819;-62
2022/04/09 04:42:45;;;;;;;20.35;5.53;;;;;;;11.46;54.12;99615.16;1711527;83;26219;-62
2022/04/09 04:45:14;;;;;;;33.63;6.28;;;;;;;11.50;53.94;99614.30;1719298;82;25784;-62
2022/04/09 04:47:47;;;;;;;41.23;8.08;;;;;;;11.53;53.97;99612.11;1720381;82;27651;-63
2022/04/09 04:50:19;;;;;;;30.37;6.33;;;;;;;11.55;54.17;99613.30;1706977;82;25730;-62
2022/04/09 04:52:46;;;;;;;21.48;7.12;;;;;;;11.54;54.06;99611.09;1697310;84;25760;-62
2022/04/09 04:55:15;;;;;;;22.55;7.78;;;;;;;11.57;53.98;99601.83;1697314;83;28168;-62
2022/04/09 04:57:55;;;;;;;21.17;6.45;;;;;;;11.59;53.94;99596.63;1698037;84;25622;-62
2022/04/09 05:00:26;;;;;;;15.83;7.35;;;;;;;11.64;53.97;99606.89;1711947;83;27491;-62
2022/04/09 05:02:55;;;;;;;22.07;6.97;;;;;;;11.70;53.88;99603.98;1707631;82;25880;-62
2022/04/09 05:05:23;;;;;;;29.55;8.43;;;;;;;11.78;53.80;99608.52;1697268;84;25483;-62
2022/04/09 05:07:52;;;;;;;32.83;8.23;;;;;;;11.82;53.74;99607.18;1720549;83;25979;-62
2022/04/09 05:10:23;;;;;;;18.37;7.08;;;;;;;11.88;53.68;99607.30;1723313;82;25800;-62
2022/04/09 05:12:54;;;;;;;47.23;8.78;;;;;;;11.92;53.80;99607.83;1758575;81;28504;-62
2022/04/09 05:15:23;;;;;;;28.17;8.05;;;;;;;11.99;53.81;99605.28;1706624;84;25926;-62
2022/04/09 05:17:51;;;;;;;28.05;8.20;;;;;;;12.07;53.69;99601.73;1720656;83;25472;-62
2022/04/09 05:20:19;;;;;;;26.55;7.55;;;;;;;12.13;53.57;99592.94;1759973;80;26094;-62
2022/04/09 05:22:48;;;;;;;20.77;7.78;;;;;;;12.21;53.45;99587.50;1725895;82;25776;-62
2022/04/09 05:25:21;;;;;;;29.60;7.92;;;;;;;12.30;53.31;99582.92;1706707;83;27556;-62
2022/04/09 05:27:50;;;;;;;28.77;8.23;;;;;;;12.37;53.18;99583.89;1720554;82;25741;-62
2022/04/09 05:30:19;;;;;;;16.15;7.22;;;;;;;12.47;53.05;99579.11;1729391;80;25696;-62
2022/04/09 05:32:47;;;;;;;25.57;7.87;;;;;;;12.56;53.06;99568.27;1720796;82;26247;-62
2022/04/09 05:35:16;;;;;;;17.40;7.47;;;;;;;12.66;52.99;99564.83;1721063;83;25816;-62
2022/04/09 05:37:46;;;;;;;21.07;6.60;;;;;;;12.77;52.97;99559.02;1706648;83;27499;-62
2022/04/09 05:40:15;;;;;;;27.02;6.97;;;;;;;12.89;52.97;99558.57;1720471;82;25473;-62
2022/04/09 05:42:43;;;;;;;20.15;7.15;;;;;;;12.99;53.19;99553.27;1716849;83;25708;-62
2022/04/09 05:45:12;;;;;;;20.85;7.37;;;;;;;13.09;53.06;99558.41;1720232;83;26441;-62
2022/04/09 05:47:44;;;;;;;22.00;7.10;;;;;;;13.18;53.03;99559.68;1730945;82;25696;-62
2022/04/09 05:50:14;;;;;;;23.70;7.62;;;;;;;13.27;52.97;99558.05;1704179;83;27548;-62
2022/04/09 05:52:43;;;;;;;22.15;7.33;;;;;;;13.40;52.89;99553.92;1698740;83;25726;-62
2022/04/09 05:55:11;;;;;;;21.12;7.50;;;;;;;13.52;52.77;99554.30;1682637;84;25656;-63
2022/04/09 05:57:39;;;;;;;22.82;6.67;;;;;;;13.64;52.64;99559.58;1682834;85;26073;-63
2022/04/09 06:00:10;;;;;;;16.87;6.45;;;;;;;13.75;52.49;99556.92;1684224;84;25731;-62
2022/04/09 06:02:44;;;;;;;19.65;6.87;;;;;;;13.87;52.42;99550.52;1715426;82;27560;-63
2022/04/09 06:05:13;;;;;;;23.15;6.83;;;;;;;13.98;52.25;99543.30;1723176;81;26027;-63
2022/04/09 06:07:41;;;;;;;28.35;6.85;;;;;;;14.12;52.06;99534.01;1722154;82;25642;-63
2022/04/09 06:10:12;;;;;;;26.82;6.85;;;;;;;14.23;52.08;99537.55;1722014;82;26096;-63
2022/04/09 06:12:38;;;;;;;25.20;7.87;;;;;;;14.34;51.91;99532.17;1722180;81;25891;-63
2022/04/09 06:15:09;;;;;;;25.35;6.97;;;;;;;14.45;51.90;99534.36;1722996;81;28434;-63
2022/04/09 06:17:39;;;;;;;22.17;6.65;;;;;;;14.54;51.83;99537.80;1722311;81;27286;-63
2022/04/09 06:20:09;;;;;;;24.05;7.85;;;;;;;14.68;51.78;99550.45;1721887;82;25823;-63
2022/04/09 06:22:37;;;;;;;21.52;8.00;;;;;;;14.80;51.58;99548.59;1722044;83;26089;-63
2022/04/09 06:25:06;;;;;;;26.37;8.30;;;;;;;14.88;51.47;99551.16;1722208;83;25832;-63
2022/04/09 06:27:35;;;;;;;25.50;8.65;;;;;;;14.95;51.06;99553.40;1722023;83;27474;-63
2022/04/09 06:30:06;;;;;;;23.87;8.10;;;;;;;15.00;51.06;99554.17;1721900;83;25853;-62
2022/04/09 06:32:34;;;;;;;14.95;7.58;;;;;;;15.11;51.01;99559.06;1722147;83;25639;-62
2022/04/09 06:35:01;;;;;;;43.20;10.32;;;;;;;15.21;50.88;99557.89;1722086;83;26109;-63
2022/04/09 06:37:28;;;;;;;19.55;9.58;;;;;;;15.30;50.52;99554.00;1722168;83;25821;-63
2022/04/09 06:39:56;;;;;;;19.00;9.30;;;;;;;15.34;50.19;99550.70;1722514;83;27434;-62
2022/04/09 06:42:23;;;;;;;25.25;8.75;;;;;;;15.43;50.26;99542.42;1722233;82;25744;-63
2022/04/09 06:45:10;;;;;;;23.90;7.55;;;;;;;15.54;50.24;99545.94;1712301;83;25631;-63
2022/04/09 06:47:42;;;;;;;24.75;7.83;;;;;;;15.67;50.02;99547.03;1693360;84;26290;-63
2022/04/09 06:50:12;;;;;;;27.00;8.70;;;;;;;15.80;49.79;99547.12;1691073;83;25879;-63
2022/04/09 06:52:40;;;;;;;23.42;8.93;;;;;;;15.90;49.62;99544.06;1706139;84;28154;-63
2022/04/09 06:55:10;;;;;;;24.43;7.90;;;;;;;16.02;49.43;99534.33;1703011;83;25781;-62
2022/04/09 06:57:41;;;;;;;16.45;7.53;;;;;;;16.14;49.07;99531.86;1707929;83;25738;-63
2022/04/09 07:00:12;;;;;;;20.08;7.85;;;;;;;16.26;48.89;99541.09;1722519;82;26076;-63
2022/04/09 07:02:41;;;;;;;20.72;7.17;;;;;;;16.42;48.78;99534.44;1746116;81;25721;-63
2022/04/09 07:05:09;;;;;;;20.85;8.30;;;;;;;16.56;48.63;99528.52;1722160;82;28934;-63
2022/04/09 07:07:36;;;;;;;17.15;7.60;;;;;;;16.70;47.78;99517.16;1722178;83;25804;-63
2022/04/09 07:10:09;;;;;;;18.87;8.08;;;;;;;16.80;47.81;99514.55;1722199;82;25713;-63
2022/04/09 07:12:38;;;;;;;27.00;9.00;;;;;;;16.95;47.75;99513.85;1722614;82;26721;-63
2022/04/09 07:15:06;;;;;;;23.30;7.95;;;;;;;17.12;47.30;99511.56;1722163;82;26153;-64
2022/04/09 07:17:34;;;;;;;16.55;6.33;;;;;;;17.31;47.12;99506.31;1722486;82;27622;-63
2022/04/09 07:26:06;;;;;;;21.33;7.42;;;;;;;17.81;45.01;99513.39;1723119;82;25801;-63
2022/04/09 07:28:33;;;;;;;19.62;8.08;;;;;;;17.96;44.81;99505.53;1722350;82;26302;-63
2022/04/09 07:31:00;;;;;;;14.30;6.70;;;;;;;18.07;43.88;99498.03;1722063;83;27665;-62
2022/04/09 07:33:27;;;;;;;17.15;8.35;;;;;;;18.12;43.75;99491.43;1722100;82;25777;-63
2022/04/09 07:35:53;;;;;;;22.20;7.83;;;;;;;18.18;43.22;99494.32;1722326;82;25804;-63
2022/04/09 07:38:21;;;;;;;21.68;8.75;;;;;;;18.20;42.84;99488.96;1722294;83;26125;-63
2022/04/09 07:40:48;;;;;;;27.73;9.00;;;;;;;18.24;42.73;99483.95;1722124;82;25745;-63
2022/04/09 07:43:15;;;;;;;17.60;7.47;;;;;;;18.28;41.94;99479.72;1721581;83;27451;-62
2022/04/09 07:45:42;;;;;;;19.00;8.68;;;;;;;18.29;42.37;99480.03;1696430;83;25469;-62
2022/04/09 07:48:11;;;;;;;23.32;8.45;;;;;;;18.38;42.51;99477.36;1696611;84;25762;-62
2022/04/09 07:50:39;;;;;;;25.17;7.78;;;;;;;18.50;42.59;99476.66;1692018;84;26266;-63
2022/04/09 07:53:09;;;;;;;23.35;6.92;;;;;;;18.60;42.21;99468.30;1687986;84;25868;-63
2022/04/09 07:55:37;;;;;;;21.37;6.42;;;;;;;18.73;41.98;99468.72;1728011;82;27467;-62
2022/04/09 07:58:06;;;;;;;14.00;6.05;;;;;;;18.85;41.79;99463.38;1726246;82;25455;-63
2022/04/09 08:00:34;;;;;;;18.57;6.83;;;;;;;18.98;40.75;99459.73;1692361;84;25671;-62
2022/04/09 08:03:01;;;;;;;24.85;5.67;;;;;;;19.16;39.78;99462.18;1694323;83;26062;-62
2022/04/09 08:05:28;;;;;;;19.98;5.20;;;;;;;19.32;38.48;99452.05;1692175;83;25531;-63
2022/04/09 08:07:54;;;;;;;11.80;4.37;;;;;;;19.55;36.88;99458.73;1688025;85;28159;-62
2022/04/09 08:10:21;;;;;;;19.90;6.00;;;;;;;19.71;36.59;99443.66;1720965;83;25866;-63
2022/04/09 08:12:51;;;;;;;12.35;5.25;;;;;;;19.90;36.25;99439.56;1721057;83;25668;-63
2022/04/09 08:15:18;;;;;;;7.37;4.85;;;;;;;20.08;35.83;99429.13;1720864;83;26111;-63
2022/04/09 08:17:45;;;;;;;12.33;5.12;;;;;;;20.28;35.57;99428.31;1721144;83;25778;-63
2022/04/09 08:20:14;;;;;;;13.90;5.55;;;;;;;20.50;34.88;99425.02;1721078;83;27477;-63
2022/04/09 08:22:42;;;;;;;20.27;5.65;;;;;;;20.64;34.79;99425.11;1720988;83;25738;-63
2022/04/09 08:25:09;;;;;;;18.45;6.00;;;;;;;20.74;34.66;99418.27;1721041;83;25645;-63
2022/04/09 08:27:37;;;;;;;14.53;6.00;;;;;;;20.89;34.25;99416.41;1720933;83;26143;-63
2022/04/09 08:30:06;;;;;;;18.20;5.67;;;;;;;20.97;34.39;99409.76;1721146;83;25836;-63
2022/04/09 08:32:34;;;;;;;9.80;4.65;;;;;;;21.07;34.20;99407.26;1721039;83;28149;-63
2022/04/09 08:35:03;;;;;;;17.12;5.92;;;;;;;21.20;33.65;99409.73;1721040;83;25846;-63
2022/04/09 08:37:30;;;;;;;15.63;5.22;;;;;;;21.35;33.37;99411.15;1721137;83;25414;-63
2022/04/09 08:39:57;;;;;;;13.72;5.42;;;;;;;21.46;33.16;99403.46;1721034;83;26984;-63
2022/04/09 08:42:25;;;;;;;10.65;5.47;;;;;;;21.63;32.92;99402.73;1721029;83;27248;-63
2022/04/09 08:44:52;;;;;;;15.50;5.75;;;;;;;21.79;32.26;99412.05;1725420;81;27529;-63
2022/04/09 08:47:19;;;;;;;15.28;5.35;;;;;;;21.91;33.05;99396.97;1727970;82;25783;-63
2022/04/09 08:49:48;;;;;;;18.75;5.92;;;;;;;22.08;32.91;99399.21;1727262;82;25711;-63
2022/04/09 08:52:16;;;;;;;15.13;5.03;;;;;;;22.33;32.49;99406.21;1729670;82;26872;-64
2022/04/09 08:54:43;;;;;;;12.37;5.00;;;;;;;22.51;32.23;99402.42;1729897;82;25935;-64
2022/04/09 08:57:11;;;;;;;12.23;4.67;;;;;;;22.72;31.33;99398.64;1729774;82;27309;-64
2022/04/09 08:59:38;;;;;;;11.73;4.58;;;;;;;22.86;31.34;99398.58;1694575;83;25863;-63
2022/04/09 09:02:06;;;;;;;6.42;3.50;;;;;;;23.06;30.62;99395.33;1721064;83;25778;-63
2022/04/09 09:04:34;;;;;;;9.40;4.25;;;;;;;23.25;29.79;99399.17;1705780;83;26900;-63
2022/04/09 09:07:20;;;;;;;10.48;3.33;;;;;;;23.40;30.11;99398.52;1707722;83;25735;-63
2022/04/09 09:09:50;;;;;;;5.50;3.55;;;;;;;23.60;29.14;99391.92;1707982;84;27387;-64
2022/04/09 09:12:29;;;;;;;4.72;2.30;;;;;;;23.80;29.18;99391.05;1707671;83;25479;-64
2022/04/09 09:14:57;;;;;;;7.45;3.10;;;;;;;24.12;28.23;99399.36;1708013;84;25829;-63
2022/04/09 09:17:29;;;;;;;6.72;2.40;;;;;;;24.41;27.68;99392.77;1708066;84;26753;-64
2022/04/09 09:19:57;;;;;;;10.67;2.43;;;;;;;24.64;27.04;99403.39;1708268;84;25909;-64
2022/04/09 09:22:39;;;;;;;6.37;2.47;;;;;;;24.93;26.41;99385.73;1708367;83;27399;-64
2022/04/09 09:25:09;;;;;;;10.32;2.67;;;;;;;25.12;26.16;99390.27;1707681;83;25984;-64
2022/04/09 09:27:38;;;;;;;5.08;2.62;;;;;;;25.31;26.00;99397.51;1708097;84;25748;-64
2022/04/09 09:30:09;;;;;;;4.95;2.80;;;;;;;25.65;25.86;99380.59;1707973;84;26097;-63
2022/04/09 09:32:36;;;;;;;9.40;2.75;;;;;;;26.18;25.22;99376.87;1708130;83;26086;-63
2022/04/09 09:35:05;;;;;;;8.30;2.87;;;;;;;26.84;24.34;99388.48;1707995;83;27449;-64
2022/04/09 09:37:31;;;;;;;9.48;3.37;;;;;;;27.41;23.47;99384.73;1708019;83;25779;-64
2022/04/09 09:39:58;;;;;;;12.03;3.27;;;;;;;27.83;23.37;99376.53;1713176;83;25748;-64
2022/04/09 09:42:26;;;;;;;5.85;2.60;;;;;;;28.46;22.20;99381.11;1717457;82;26100;-64
2022/04/09 09:44:54;;;;;;;4.22;2.58;;;;;;;28.69;21.60;99370.65;1718533;82;25468;-63
2022/04/09 09:47:20;;;;;;;9.45;3.40;;;;;;;28.93;20.82;99385.67;1719357;82;27101;-64
2022/04/09 09:49:55;;;;;;;8.08;2.90;;;;;;;29.01;20.23;99381.69;1717360;82;25726;-63
2022/04/09 09:52:30;;;;;;;8.60;2.47;;;;;;;29.13;20.61;99368.00;1696110;84;25932;-63
2022/04/09 09:55:14;;;;;;;9.75;2.87;;;;;;;29.41;20.44;99366.30;1695993;84;26181;-64
2022/04/09 09:57:43;;;;;;;8.38;2.60;;;;;;;29.72;19.99;99363.70;1695947;84;25832;-64
2022/04/09 10:00:14;;;;;;;7.20;2.80;;;;;;;29.82;19.68;99359.38;1688420;84;27489;-64
2022/04/09 10:02:45;;;;;;;7.67;2.35;;;;;;;29.91;19.76;99342.91;1688490;85;25776;-64
2022/04/09 10:05:13;;;;;;;13.60;3.33;;;;;;;30.28;18.84;99355.92;1668513;85;25794;-64
2022/04/09 10:07:40;;;;;;;9.93;2.42;;;;;;;30.24;19.25;99346.58;1714848;83;26309;-64
2022/04/09 10:10:09;;;;;;;9.53;2.77;;;;;;;30.44;20.19;99344.55;1694953;83;25865;-64
2022/04/09 10:12:42;;;;;;;8.53;2.90;;;;;;;30.50;19.31;99347.52;1717761;83;27433;-64
2022/04/09 10:15:10;;;;;;;5.40;2.80;;;;;;;30.68;19.25;99350.56;1717495;83;34621;-64
2022/04/09 10:17:39;;;;;;;6.28;2.77;;;;;;;31.43;18.27;99338.81;1717948;83;25820;-64
2022/04/09 10:20:08;;;;;;;12.10;3.20;;;;;;;31.83;17.94;99343.23;1694797;84;26068;-63
2022/04/09 10:22:43;;;;;;;6.03;2.55;;;;;;;32.41;18.31;99336.56;1688740;84;25784;-64
2022/04/09 10:25:11;;;;;;;7.58;2.85;;;;;;;33.13;16.89;99338.59;1713560;83;27543;-64
2022/04/09 10:27:45;;;;;;;8.70;3.00;;;;;;;32.36;16.91;99354.80;1714594;82;25839;-64
2022/04/09 10:30:20;;;;;;;6.58;2.45;;;;;;;31.51;17.70;99342.82;1714642;83;25751;-64
2022/04/09 10:32:56;;;;;;;13.85;2.90;;;;;;;30.62;18.42;99346.25;1712998;83;26457;-64
2022/04/09 10:35:31;;;;;;;6.78;2.50;;;;;;;29.87;19.00;99334.91;1715034;83;25495;-64
2022/04/09 10:38:13;;;;;;;10.30;2.60;;;;;;;29.42;19.43;99340.25;1714447;83;27546;-64
2022/04/09 10:40:57;;;;;;;7.35;3.00;;;;;;;29.77;19.78;99337.29;1714664;83;26441;-64
2022/04/09 10:43:30;;;;;;;8.10;2.70;;;;;;;30.37;19.01;99326.09;1714992;83;25546;-64
2022/04/09 10:46:10;;;;;;;5.60;2.62;;;;;;;30.04;19.26;99333.84;1716333;82;26104;-64
2022/04/09 10:48:41;;;;;;;7.58;2.33;;;;;;;29.48;19.53;99335.47;1716286;83;25716;-64
2022/04/09 10:51:12;;;;;;;8.80;2.87;;;;;;;28.76;20.30;99326.61;1711304;83;27454;-64
2022/04/09 10:53:42;;;;;;;6.83;2.80;;;;;;;28.50;20.79;99330.45;1696191;84;25720;-64
2022/04/09 10:56:29;;;;;;;5.53;2.50;;;;;;;28.55;20.63;99324.05;1696409;84;25693;-64
2022/04/09 10:59:13;;;;;;;6.62;2.50;;;;;;;28.35;20.96;99320.35;1672588;85;26160;-63
2022/04/09 11:01:50;;;;;;;12.98;2.33;;;;;;;29.08;20.09;99332.09;1708026;84;26368;-64
2022/04/09 11:04:32;;;;;;;5.15;2.60;;;;;;;28.95;20.25;99319.20;1701149;84;27502;-64
2022/04/09 11:07:16;;;;;;;11.10;2.27;;;;;;;28.76;20.37;99319.16;1696852;84;25793;-63
2022/04/09 11:10:03;;;;;;;4.22;2.10;;;;;;;29.36;20.46;99308.21;1696901;84;25741;-64
2022/04/09 11:12:43;;;;;;;7.37;2.65;;;;;;;29.00;20.15;99303.91;1701362;83;26163;-64
2022/04/09 11:15:14;;;;;;;5.22;2.40;;;;;;;28.55;20.68;99303.30;1709786;83;26261;-64
2022/04/09 11:17:45;;;;;;;6.03;2.37;;;;;;;28.19;20.96;99309.97;1711008;83;27680;-64
2022/04/09 11:20:16;;;;;;;5.53;1.80;;;;;;;28.78;20.82;99304.44;1712395;82;25494;-64
2022/04/09 11:22:47;;;;;;;2.85;1.30;;;;;;;29.55;19.93;99318.48;1689576;84;25735;-63
2022/04/09 11:25:24;;;;;;;3.12;1.10;;;;;;;28.63;19.73;99325.33;1689550;84;26095;-64
2022/04/09 11:28:18;;;;;;;7.45;3.83;;;;;;;28.00;20.33;99307.07;1712773;82;25806;-64
2022/04/09 11:31:02;;;;;;;3.65;1.07;;;;;;;27.53;20.94;99312.06;1689344;84;27489;-64
2022/04/09 11:33:27;;;;;;;3.35;1.00;;;;;;;27.16;21.35;99311.96;1689171;84;25825;-64
2022/04/09 11:35:54;;;;;;;2.80;1.15;;;;;;;26.80;21.84;99317.60;1712595;83;25710;-64
2022/04/09 11:38:26;;;;;;;1.87;1.25;;;;;;;26.63;22.07;99313.16;1689553;84;26241;-64
2022/04/09 11:40:54;;;;;;;5.40;1.15;;;;;;;26.51;22.09;99314.84;1712633;82;26097;-63
2022/04/09 11:43:23;;;;;;;3.08;1.47;;;;;;;26.53;22.04;99331.95;1689997;84;27516;-64